Time;durP1;ratioP1;P1;durP2;ratioP2;P2;SDS_P1;SDS_P2;PMS_P1;PMS_P2;Temp;Humidity;BMP_temperature;BMP_pressure;BME280_temperature;BME280_humidity;BME280_pressure;Samples;Min_cycle;Max_cycle;Signal;HPM_P1;HPM_P2
2021/04/23 00:01:48;;;;;;;15.23;3.42;;;10.00;62.30;;;;;;4999029;28;20041;-61
2021/04/23 00:04:15;;;;;;;9.13;3.15;;;9.90;61.70;;;;;;5015863;28;20057;-61
2021/04/23 00:06:45;;;;;;;10.50;3.40;;;9.90;61.80;;;;;;5016344;28;20113;-61
2021/04/23 00:09:16;;;;;;;10.50;3.40;;;9.90;61.90;;;;;;4998709;28;20034;-60
2021/04/23 00:11:56;;;;;;;9.82;3.00;;;9.80;61.90;;;;;;4998722;28;20037;-61
2021/04/23 00:14:25;;;;;;;11.02;3.47;;;9.80;62.00;;;;;;5016050;28;20409;-61
2021/04/23 00:16:51;;;;;;;11.20;3.20;;;9.80;62.00;;;;;;5016337;28;20030;-61
2021/04/23 00:19:20;;;;;;;9.20;3.92;;;9.80;62.00;;;;;;5015327;28;20385;-61
2021/04/23 00:21:47;;;;;;;9.25;3.55;;;9.80;62.10;;;;;;5016528;28;20030;-61
2021/04/23 00:24:13;;;;;;;7.60;3.30;;;9.70;62.10;;;;;;5015803;28;20050;-61
2021/04/23 00:26:40;;;;;;;9.07;2.85;;;9.70;62.20;;;;;;5015990;28;20464;-60
2021/04/23 00:29:06;;;;;;;13.52;3.60;;;9.70;62.30;;;;;;5016062;28;20034;-61
2021/04/23 00:31:32;;;;;;;8.48;3.50;;;9.70;62.20;;;;;;5015338;28;20057;-60
2021/04/23 00:33:58;;;;;;;10.35;3.67;;;9.70;62.10;;;;;;5015463;28;20080;-61
2021/04/23 00:36:24;;;;;;;11.65;2.97;;;9.60;62.00;;;;;;5015987;28;20037;-61
2021/04/23 00:38:50;;;;;;;10.98;3.60;;;9.70;62.10;;;;;;5015598;28;20421;-61
2021/04/23 00:41:19;;;;;;;7.78;3.33;;;9.70;62.10;;;;;;5015559;28;20466;-61
2021/04/23 00:43:56;;;;;;;12.00;3.50;;;9.60;62.10;;;;;;5015739;28;20034;-61
2021/04/23 00:46:22;;;;;;;11.07;3.58;;;9.60;62.00;;;;;;5015242;28;20508;-61
2021/04/23 00:48:49;;;;;;;11.35;3.03;;;9.60;62.00;;;;;;5015596;28;20359;-61
2021/04/23 00:51:22;;;;;;;8.38;2.83;;;9.60;61.90;;;;;;5015865;28;20037;-61
2021/04/23 00:53:51;;;;;;;7.05;2.70;;;9.60;62.00;;;;;;4997332;28;20123;-61
2021/04/23 00:56:20;;;;;;;15.63;3.40;;;9.50;62.00;;;;;;5015764;28;20026;-60
2021/04/23 00:58:46;;;;;;;10.73;3.67;;;9.50;62.10;;;;;;5015563;28;20030;-61
2021/04/23 01:01:18;;;;;;;8.90;3.25;;;9.50;62.20;;;;;;5014568;28;20088;-61
2021/04/23 01:03:44;;;;;;;11.30;3.30;;;9.40;62.20;;;;;;5015665;28;20045;-61
2021/04/23 01:06:17;;;;;;;10.10;3.75;;;9.40;62.30;;;;;;5015178;28;20026;-62
2021/04/23 01:08:44;;;;;;;8.43;3.33;;;9.40;62.50;;;;;;5015116;28;20620;-61
2021/04/23 01:11:10;;;;;;;7.22;3.30;;;9.40;62.50;;;;;;5015387;28;20084;-61
2021/04/23 01:13:37;;;;;;;9.80;3.10;;;9.30;62.60;;;;;;5014678;28;20770;-61
2021/04/23 01:16:09;;;;;;;14.15;3.20;;;9.30;62.60;;;;;;5014993;28;20041;-61
2021/04/23 01:18:36;;;;;;;10.20;3.10;;;9.30;62.70;;;;;;5015161;28;20057;-61
2021/04/23 01:21:13;;;;;;;10.88;3.20;;;9.20;62.70;;;;;;5014609;28;20405;-61
2021/04/23 01:23:42;;;;;;;10.88;2.58;;;9.20;62.90;;;;;;5014928;28;20030;-61
2021/04/23 01:26:10;;;;;;;8.85;3.22;;;9.20;63.00;;;;;;5014854;28;20041;-61
2021/04/23 01:28:37;;;;;;;8.57;3.17;;;9.10;62.90;;;;;;5014643;28;20065;-61
2021/04/23 01:31:06;;;;;;;9.90;3.10;;;9.10;62.90;;;;;;5014818;28;20034;-60
2021/04/23 01:33:34;;;;;;;7.13;3.17;;;9.00;62.90;;;;;;5001439;28;20033;-61
2021/04/23 01:36:00;;;;;;;11.25;3.17;;;9.00;62.80;;;;;;5014146;28;20038;-61
2021/04/23 01:38:26;;;;;;;8.45;3.28;;;9.10;62.90;;;;;;5014521;28;20028;-61
2021/04/23 01:40:52;;;;;;;10.73;2.90;;;9.00;62.80;;;;;;5014950;28;20030;-61
2021/04/23 01:43:18;;;;;;;11.05;3.45;;;9.00;62.80;;;;;;5014007;28;20084;-61
2021/04/23 01:45:47;;;;;;;13.90;3.50;;;9.00;62.80;;;;;;5014508;28;20042;-60
2021/04/23 01:48:15;;;;;;;7.22;3.15;;;8.90;62.80;;;;;;5014798;28;20088;-61
2021/04/23 01:50:42;;;;;;;11.10;3.75;;;8.90;62.90;;;;;;5013803;28;20160;-61
2021/04/23 01:53:08;;;;;;;8.52;3.03;;;8.80;62.80;;;;;;5014391;28;20030;-60
2021/04/23 01:55:35;;;;;;;9.05;2.90;;;8.80;62.90;;;;;;5013988;28;20030;-60
2021/04/23 01:58:01;;;;;;;5.43;3.20;;;8.80;62.90;;;;;;5014438;28;20120;-60
2021/04/23 02:00:34;;;;;;;10.25;3.70;;;8.70;62.90;;;;;;5014582;28;20022;-61
2021/04/23 02:03:04;;;;;;;12.60;3.45;;;8.70;63.70;;;;;;5000896;28;20030;-61
2021/04/23 02:05:30;;;;;;;13.00;4.03;;;8.60;63.10;;;;;;5011032;28;20054;-60
2021/04/23 02:07:58;;;;;;;8.10;3.40;;;8.70;63.20;;;;;;5013578;28;20026;-60
2021/04/23 02:10:28;;;;;;;10.35;3.42;;;8.70;63.30;;;;;;5013050;28;20033;-61
2021/04/23 02:12:54;;;;;;;10.25;3.30;;;8.60;63.40;;;;;;5012942;28;20038;-60
2021/04/23 02:15:24;;;;;;;8.07;3.05;;;8.60;63.40;;;;;;5012608;28;20035;-61
2021/04/23 02:17:50;;;;;;;10.43;3.40;;;8.60;63.50;;;;;;5012045;28;20101;-60
2021/04/23 02:20:22;;;;;;;11.50;3.13;;;8.60;63.70;;;;;;5012291;28;20029;-60
2021/04/23 02:22:48;;;;;;;5.70;3.28;;;8.60;63.80;;;;;;5011784;28;20018;-61
2021/04/23 02:25:16;;;;;;;9.07;3.08;;;8.50;63.90;;;;;;5011821;28;20037;-61
2021/04/23 02:27:42;;;;;;;4.97;3.10;;;8.50;63.90;;;;;;5012479;28;20032;-61
2021/04/23 02:30:16;;;;;;;7.68;3.10;;;8.50;63.90;;;;;;5012805;28;20543;-60
2021/04/23 02:32:42;;;;;;;;;;;8.50;63.90;;;;;;5012415;28;20041;-61
2021/04/23 02:35:11;;;;;;;9.65;3.10;;;8.50;63.70;;;;;;5011400;28;19916;-64
2021/04/23 02:37:37;;;;;;;7.15;2.92;;;8.40;63.40;;;;;;5012092;28;20060;-61
2021/04/23 02:40:07;;;;;;;8.43;3.17;;;8.40;63.50;;;;;;5011607;28;20026;-61
2021/04/23 02:42:33;;;;;;;8.32;3.42;;;8.40;63.60;;;;;;5012193;28;20485;-61
2021/04/23 02:44:59;;;;;;;6.70;2.80;;;8.40;63.60;;;;;;5011655;28;20033;-61
2021/04/23 02:47:25;;;;;;;13.50;3.40;;;8.40;63.50;;;;;;5012232;28;20049;-61
2021/04/23 02:49:51;;;;;;;5.97;2.90;;;8.30;63.60;;;;;;5012119;28;20474;-61
2021/04/23 02:52:17;;;;;;;8.25;3.30;;;8.30;63.70;;;;;;5011413;28;20029;-61
2021/04/23 02:54:43;;;;;;;9.77;3.45;;;8.30;63.80;;;;;;5012088;28;20026;-61
2021/04/23 02:57:08;;;;;;;8.43;3.72;;;8.30;64.00;;;;;;5012048;28;20030;-60
2021/04/23 02:59:34;;;;;;;12.55;3.22;;;8.20;64.20;;;;;;5011574;28;20061;-61
2021/04/23 03:02:00;;;;;;;9.38;3.70;;;8.20;64.20;;;;;;5011880;28;20022;-61
2021/04/23 03:04:27;;;;;;;6.22;3.17;;;8.20;64.20;;;;;;5011750;28;20032;-61
2021/04/23 03:06:53;;;;;;;8.35;2.63;;;8.20;64.20;;;;;;5011743;28;20124;-61
2021/04/23 03:09:19;;;;;;;5.80;2.70;;;8.20;64.10;;;;;;5011554;28;20022;-61
2021/04/23 03:11:46;;;;;;;5.93;2.70;;;8.20;64.10;;;;;;5012055;28;20477;-61
2021/04/23 03:14:11;;;;;;;7.18;2.55;;;8.20;64.20;;;;;;4991599;28;574129;-61
2021/04/23 03:16:40;;;;;;;6.72;3.42;;;8.10;64.30;;;;;;5012511;28;20112;-61
2021/04/23 03:19:17;;;;;;;9.93;3.80;;;8.10;64.40;;;;;;5013121;28;20022;-60
2021/04/23 03:21:44;;;;;;;7.57;3.38;;;8.20;64.70;;;;;;5001398;28;20521;-61
2021/04/23 03:24:13;;;;;;;11.45;4.13;;;8.10;64.70;;;;;;5012717;28;20042;-61
2021/04/23 03:26:40;;;;;;;7.80;3.33;;;8.20;65.00;;;;;;5000633;28;20030;-61
2021/04/23 03:29:08;;;;;;;10.15;3.42;;;8.20;65.10;;;;;;5012115;28;20491;-61
2021/04/23 03:31:37;;;;;;;9.60;2.72;;;8.20;65.10;;;;;;5012643;28;20084;-61
2021/04/23 03:34:04;;;;;;;9.90;3.25;;;8.20;65.00;;;;;;5011384;28;20080;-61
2021/04/23 03:36:30;;;;;;;10.35;3.60;;;8.20;65.00;;;;;;5012498;28;20022;-61
2021/04/23 03:38:56;;;;;;;7.63;3.42;;;8.10;65.00;;;;;;5012842;28;20359;-61
2021/04/23 03:41:25;;;;;;;6.70;2.78;;;8.10;65.00;;;;;;5011942;28;20034;-61
2021/04/23 03:43:52;;;;;;;7.60;2.88;;;8.10;65.00;;;;;;5012751;28;20061;-60
2021/04/23 03:46:18;;;;;;;5.80;2.65;;;8.10;64.90;;;;;;5013029;28;20046;-61
2021/04/23 03:48:45;;;;;;;5.78;2.38;;;8.10;65.00;;;;;;5012268;28;20036;-61
2021/04/23 03:51:12;;;;;;;12.27;2.72;;;8.10;65.10;;;;;;5012619;28;20428;-61
2021/04/23 03:53:38;;;;;;;19.88;3.38;;;8.00;65.00;;;;;;5012602;28;20057;-61
2021/04/23 03:56:06;;;;;;;8.15;2.97;;;8.10;65.40;;;;;;5012346;28;20038;-61
2021/04/23 03:58:33;;;;;;;6.07;3.17;;;8.00;65.10;;;;;;5012345;28;20474;-61
2021/04/23 04:01:02;;;;;;;12.48;3.63;;;8.00;65.20;;;;;;5012783;28;20075;-61
2021/04/23 04:03:29;;;;;;;10.50;2.85;;;8.00;65.20;;;;;;5012031;28;20077;-61
2021/04/23 04:05:57;;;;;;;3.72;2.30;;;8.00;65.90;;;;;;5012539;28;20076;-61
2021/04/23 04:08:23;;;;;;;8.30;2.95;;;7.90;65.40;;;;;;5012525;28;20481;-60
2021/04/23 04:10:49;;;;;;;14.65;3.10;;;7.90;65.40;;;;;;5011553;28;20489;-61
2021/04/23 04:13:16;;;;;;;14.18;2.90;;;7.80;65.40;;;;;;5012217;28;20079;-61
2021/04/23 04:15:42;;;;;;;9.68;3.20;;;7.80;65.40;;;;;;5012607;28;20033;-61
2021/04/23 04:18:09;;;;;;;9.02;2.90;;;7.80;65.40;;;;;;5011989;28;20049;-61
2021/04/23 04:20:38;;;;;;;8.98;3.00;;;7.80;65.40;;;;;;5012482;28;20030;-61
2021/04/23 04:23:07;;;;;;;12.55;2.88;;;7.80;65.50;;;;;;5012517;28;20042;-60
2021/04/23 04:25:37;;;;;;;9.27;3.83;;;7.70;65.50;;;;;;5011740;28;20057;-61
2021/04/23 04:28:07;;;;;;;5.38;2.30;;;7.80;65.70;;;;;;5012660;28;20022;-61
2021/04/23 04:30:34;;;;;;;5.18;2.53;;;7.70;65.70;;;;;;5012053;28;20038;-61
2021/04/23 04:33:00;;;;;;;6.55;3.65;;;7.70;65.70;;;;;;5012131;28;20080;-61
2021/04/23 04:35:27;;;;;;;10.95;3.63;;;7.70;65.80;;;;;;5012421;28;20454;-61
2021/04/23 04:37:54;;;;;;;12.40;2.78;;;7.70;65.80;;;;;;5011723;28;20080;-61
2021/04/23 04:40:21;;;;;;;6.65;2.80;;;7.70;65.70;;;;;;5012333;28;20025;-61
2021/04/23 04:42:47;;;;;;;10.07;3.10;;;7.70;65.80;;;;;;5012269;28;20026;-61
2021/04/23 04:45:18;;;;;;;11.82;3.25;;;7.70;65.70;;;;;;5013127;28;20069;-61
2021/04/23 04:47:45;;;;;;;9.65;3.17;;;7.70;65.70;;;;;;5015596;28;20113;-61
2021/04/23 04:50:17;;;;;;;6.97;2.80;;;7.70;65.70;;;;;;5015492;28;20037;-61
2021/04/23 04:52:43;;;;;;;4.32;2.65;;;7.70;65.80;;;;;;5015331;28;20034;-61
2021/04/23 04:55:10;;;;;;;5.32;3.00;;;7.60;65.80;;;;;;5015644;28;20608;-61
2021/04/23 04:57:36;;;;;;;6.57;2.72;;;7.60;66.00;;;;;;5015587;28;20034;-61
2021/04/23 05:00:08;;;;;;;5.68;2.92;;;7.60;66.00;;;;;;4997311;28;20076;-61
2021/04/23 05:02:34;;;;;;;6.05;3.00;;;7.60;66.20;;;;;;5015478;28;20029;-61
2021/04/23 05:05:00;;;;;;;8.57;3.10;;;7.60;66.10;;;;;;5015425;28;20509;-61
2021/04/23 05:07:26;;;;;;;7.80;3.30;;;7.60;66.20;;;;;;5014706;28;20026;-61
2021/04/23 05:09:51;;;;;;;10.82;3.92;;;7.60;66.20;;;;;;5015336;28;20029;-60
2021/04/23 05:12:17;;;;;;;9.00;3.30;;;7.60;66.30;;;;;;5014710;28;20036;-61
2021/04/23 05:14:43;;;;;;;10.63;2.88;;;7.60;66.40;;;;;;5014467;28;20033;-61
2021/04/23 05:17:09;;;;;;;6.22;3.08;;;7.60;66.40;;;;;;5014457;28;20029;-62
2021/04/23 05:19:35;;;;;;;7.45;3.20;;;7.60;66.50;;;;;;5014452;28;20065;-61
2021/04/23 05:22:00;;;;;;;7.88;3.50;;;7.60;66.50;;;;;;5014614;28;20033;-61
2021/04/23 05:24:26;;;;;;;13.18;3.92;;;7.60;66.70;;;;;;5013186;28;20041;-61
2021/04/23 05:26:52;;;;;;;8.23;3.30;;;7.60;66.80;;;;;;5004832;28;20026;-61
2021/04/23 05:29:17;;;;;;;8.63;4.05;;;7.70;66.90;;;;;;5008493;28;20117;-61
2021/04/23 05:31:43;;;;;;;8.38;3.53;;;7.60;67.20;;;;;;4995342;28;20041;-62
2021/04/23 05:34:09;;;;;;;9.50;2.83;;;7.70;67.20;;;;;;4995340;28;20034;-61
2021/04/23 05:36:35;;;;;;;7.07;3.10;;;7.70;67.10;;;;;;4994436;28;20027;-61
2021/04/23 05:39:00;;;;;;;9.30;3.30;;;7.70;67.00;;;;;;4994435;28;20116;-62
2021/04/23 05:41:26;;;;;;;9.40;2.83;;;7.70;67.00;;;;;;4996890;28;20022;-61
2021/04/23 05:43:52;;;;;;;9.23;2.90;;;7.70;66.90;;;;;;4998276;28;20529;-65
2021/04/23 05:46:18;;;;;;;12.13;3.40;;;7.70;66.90;;;;;;5012638;28;20030;-65
2021/04/23 05:48:48;;;;;;;9.00;2.30;;;7.70;67.00;;;;;;5011677;28;20029;-63
2021/04/23 05:51:14;;;;;;;7.57;2.90;;;7.70;67.00;;;;;;5013765;28;20030;-71
2021/04/23 05:53:41;;;;;;;13.00;3.50;;;7.70;67.10;;;;;;5013916;28;20433;-62
2021/04/23 05:56:06;;;;;;;5.78;2.40;;;7.80;67.60;;;;;;4994560;28;20057;-63
2021/04/23 05:58:32;;;;;;;6.65;2.60;;;7.80;67.60;;;;;;5013453;28;20135;-61
2021/04/23 06:00:58;;;;;;;5.57;2.13;;;7.80;68.10;;;;;;5013304;28;20049;-61
2021/04/23 06:03:24;;;;;;;6.13;3.20;;;7.80;67.20;;;;;;5012777;28;20030;-60
2021/04/23 06:05:50;;;;;;;9.77;3.13;;;7.90;67.30;;;;;;5014215;28;20038;-61
2021/04/23 06:08:16;;;;;;;10.55;4.20;;;7.90;67.60;;;;;;5014210;28;20029;-61
2021/04/23 06:10:44;;;;;;;9.45;3.10;;;7.90;67.90;;;;;;5013243;28;20037;-60
2021/04/23 06:13:11;;;;;;;13.05;3.78;;;8.00;68.30;;;;;;5013921;28;20069;-61
2021/04/23 06:15:37;;;;;;;12.15;2.97;;;8.00;68.60;;;;;;5013879;28;20056;-60
2021/04/23 06:18:04;;;;;;;13.98;4.25;;;8.10;68.20;;;;;;5013292;28;20485;-61
2021/04/23 06:20:32;;;;;;;13.13;3.35;;;8.10;68.70;;;;;;5013848;28;20083;-60
2021/04/23 06:22:59;;;;;;;5.60;2.70;;;8.20;68.60;;;;;;5013453;28;20026;-61
2021/04/23 06:25:26;;;;;;;8.32;2.70;;;8.20;68.30;;;;;;5013660;28;20092;-60
2021/04/23 06:27:53;;;;;;;6.03;2.42;;;8.20;67.80;;;;;;5013767;28;20034;-61
2021/04/23 06:30:26;;;;;;;9.65;2.83;;;8.30;67.50;;;;;;5013057;28;20060;-61
2021/04/23 06:32:51;;;;;;;9.10;2.90;;;8.40;67.50;;;;;;5013370;28;20025;-61
2021/04/23 06:35:20;;;;;;;4.15;2.72;;;8.40;67.30;;;;;;5013665;28;20603;-61
2021/04/23 06:37:46;;;;;;;8.75;3.55;;;8.50;67.20;;;;;;5012955;28;20068;-61
2021/04/23 06:40:12;;;;;;;10.35;2.85;;;8.60;67.30;;;;;;5013620;28;20029;-60
2021/04/23 06:42:39;;;;;;;12.85;3.35;;;8.60;67.20;;;;;;5013544;28;20030;-60
2021/04/23 06:45:09;;;;;;;16.30;4.90;;;8.70;67.30;;;;;;5012679;28;20076;-61
2021/04/23 06:47:35;;;;;;;12.25;3.13;;;8.70;67.60;;;;;;5013500;28;20030;-61
2021/04/23 06:50:02;;;;;;;12.18;3.08;;;8.80;67.30;;;;;;5013436;28;20029;-61
2021/04/23 06:52:28;;;;;;;12.38;3.30;;;8.80;67.10;;;;;;5012800;28;20053;-61
2021/04/23 06:54:54;;;;;;;15.02;3.08;;;8.90;67.30;;;;;;5013443;28;20473;-60
2021/04/23 06:57:19;;;;;;;7.28;3.13;;;8.90;67.10;;;;;;5013153;28;20405;-60
2021/04/23 06:59:45;;;;;;;7.60;3.35;;;9.00;67.00;;;;;;5012770;28;20037;-60
2021/04/23 07:02:11;;;;;;;7.53;2.97;;;9.00;66.80;;;;;;5013338;28;20034;-61
2021/04/23 07:04:37;;;;;;;9.02;3.13;;;9.10;67.00;;;;;;5013179;28;20440;-61
2021/04/23 07:07:02;;;;;;;7.90;3.60;;;9.10;66.80;;;;;;5012317;28;20030;-61
2021/04/23 07:09:28;;;;;;;7.90;2.40;;;9.10;66.60;;;;;;5013219;28;20489;-60
2021/04/23 07:11:54;;;;;;;12.48;3.90;;;9.10;66.60;;;;;;5013248;28;20030;-61
2021/04/23 07:14:19;;;;;;;9.32;3.35;;;9.20;66.80;;;;;;5012036;28;20053;-61
2021/04/23 07:16:45;;;;;;;12.93;3.47;;;9.20;66.90;;;;;;5013144;28;20026;-61
2021/04/23 07:19:11;;;;;;;6.72;2.60;;;9.20;67.10;;;;;;5012466;28;20030;-61
2021/04/23 07:21:37;;;;;;;6.60;2.45;;;9.30;67.20;;;;;;5012920;28;20037;-61
2021/04/23 07:24:02;;;;;;;9.25;3.30;;;9.30;67.30;;;;;;5012836;28;20045;-61
2021/04/23 07:26:28;;;;;;;10.85;2.72;;;9.40;67.30;;;;;;5012451;28;20503;-61
2021/04/23 07:28:56;;;;;;;7.57;2.55;;;9.40;67.40;;;;;;5013057;28;20041;-61
2021/04/23 07:31:23;;;;;;;6.97;3.05;;;9.40;67.40;;;;;;5013153;28;20077;-61
2021/04/23 07:33:49;;;;;;;9.35;3.00;;;9.40;67.50;;;;;;5012253;28;20393;-61
2021/04/23 07:36:15;;;;;;;10.48;2.95;;;9.40;67.80;;;;;;5012654;28;20414;-61
2021/04/23 07:38:41;;;;;;;5.20;2.45;;;9.40;68.00;;;;;;5012915;28;20095;-61
2021/04/23 07:41:07;;;;;;;15.18;4.30;;;9.40;67.90;;;;;;5011938;28;20489;-61
2021/04/23 07:43:33;;;;;;;4.75;1.83;;;9.50;67.60;;;;;;5012827;28;20038;-61
2021/04/23 07:46:00;;;;;;;15.57;3.65;;;9.50;68.10;;;;;;5012792;28;20046;-61
2021/04/23 07:48:27;;;;;;;17.02;4.70;;;9.50;67.70;;;;;;5011886;28;20080;-61
2021/04/23 07:50:53;;;;;;;12.65;2.67;;;9.50;67.00;;;;;;5012750;28;20022;-61
2021/04/23 07:53:19;;;;;;;5.15;2.08;;;9.50;67.20;;;;;;5012243;28;20425;-61
2021/04/23 07:55:45;;;;;;;6.18;2.63;;;9.60;67.10;;;;;;5011898;28;20041;-61
2021/04/23 07:58:11;;;;;;;7.50;1.80;;;9.70;66.90;;;;;;5012186;28;20030;-61
2021/04/23 08:00:37;;;;;;;11.20;3.20;;;9.70;66.70;;;;;;5012429;28;20061;-63
2021/04/23 08:03:02;;;;;;;5.68;2.30;;;9.90;66.30;;;;;;5011693;28;20033;-62
2021/04/23 08:05:28;;;;;;;12.32;3.55;;;9.90;66.20;;;;;;5011458;28;20042;-62
2021/04/23 08:07:54;;;;;;;6.85;2.50;;;9.90;65.80;;;;;;5005905;28;20026;-62
2021/04/23 08:10:20;;;;;;;7.07;3.08;;;9.90;65.90;;;;;;5009356;28;20429;-63
2021/04/23 08:12:48;;;;;;;7.80;3.05;;;9.90;65.90;;;;;;5011683;28;20474;-63
2021/04/23 08:15:16;;;;;;;8.60;2.75;;;10.00;66.10;;;;;;5011745;28;20018;-63
2021/04/23 08:17:43;;;;;;;8.52;2.50;;;10.00;66.10;;;;;;5011911;28;20045;-63
2021/04/23 08:20:09;;;;;;;7.80;2.55;;;10.10;66.30;;;;;;5014005;28;20033;-63
2021/04/23 08:22:37;;;;;;;10.80;2.75;;;10.10;66.20;;;;;;5015799;28;20030;-62
2021/04/23 08:25:05;;;;;;;5.82;2.53;;;10.20;66.60;;;;;;5014729;28;20470;-62
2021/04/23 08:27:31;;;;;;;8.40;2.83;;;10.30;66.60;;;;;;5013216;28;20128;-63
2021/04/23 08:29:56;;;;;;;4.07;2.03;;;10.30;66.50;;;;;;5012979;28;20030;-63
2021/04/23 08:32:22;;;;;;;6.80;2.25;;;10.30;66.30;;;;;;5015352;28;20605;-63
2021/04/23 08:34:48;;;;;;;8.30;2.50;;;10.30;66.10;;;;;;5015925;28;20037;-63
2021/04/23 08:37:14;;;;;;;6.97;2.67;;;10.30;66.10;;;;;;5014907;28;20428;-63
2021/04/23 08:39:41;;;;;;;5.32;2.20;;;10.40;66.10;;;;;;5015221;28;20057;-62
2021/04/23 08:42:07;;;;;;;9.15;2.38;;;10.40;65.80;;;;;;5015154;28;20473;-62
2021/04/23 08:44:33;;;;;;;17.20;3.13;;;10.40;65.60;;;;;;5014350;28;20045;-62
2021/04/23 08:47:00;;;;;;;4.47;2.35;;;10.50;64.70;;;;;;5015449;28;20022;-65
2021/04/23 08:49:25;;;;;;;14.00;2.53;;;10.50;65.00;;;;;;5014989;28;20066;-62
2021/04/23 08:51:52;;;;;;;8.57;2.20;;;10.60;65.20;;;;;;5014344;28;20064;-62
2021/04/23 08:54:23;;;;;;;3.58;1.63;;;10.60;65.30;;;;;;5015598;28;20076;-61
2021/04/23 08:56:49;;;;;;;6.80;2.40;;;10.70;65.20;;;;;;5015254;28;20037;-62
2021/04/23 08:59:15;;;;;;;5.95;2.50;;;10.70;65.20;;;;;;5014742;28;20026;-61
2021/04/23 09:01:41;;;;;;;4.22;2.33;;;10.80;65.20;;;;;;5015291;28;20038;-61
2021/04/23 09:04:07;;;;;;;7.53;2.45;;;10.90;65.00;;;;;;5014768;28;20021;-62
2021/04/23 09:06:33;;;;;;;11.88;2.33;;;10.90;64.80;;;;;;5014064;28;20478;-61
2021/04/23 09:09:13;;;;;;;8.45;3.00;;;11.00;65.10;;;;;;5014528;28;20040;-61
2021/04/23 09:11:44;;;;;;;9.27;2.30;;;11.00;63.60;;;;;;5014631;28;20048;-61
2021/04/23 09:14:12;;;;;;;12.68;2.95;;;11.00;63.90;;;;;;5014719;28;20038;-61
2021/04/23 09:16:44;;;;;;;10.50;2.67;;;11.00;64.30;;;;;;5015148;28;20026;-62
2021/04/23 09:19:30;;;;;;;2.70;1.17;;;11.00;64.00;;;;;;4996800;28;20022;-61
2021/04/23 09:22:09;;;;;;;9.98;2.53;;;11.10;64.40;;;;;;5014884;28;20484;-61
2021/04/23 09:24:39;;;;;;;8.70;2.45;;;11.10;64.60;;;;;;5005808;28;20050;-61
2021/04/23 09:27:14;;;;;;;9.80;2.60;;;11.20;64.50;;;;;;5014188;28;20045;-61
2021/04/23 09:29:45;;;;;;;10.82;2.92;;;11.20;64.40;;;;;;5005959;28;20026;-61
2021/04/23 09:32:24;;;;;;;4.68;1.77;;;11.20;64.00;;;;;;5014697;28;20030;-61
2021/04/23 09:35:02;;;;;;;6.13;2.75;;;11.30;63.80;;;;;;5005058;28;20037;-64
2021/04/23 09:37:40;;;;;;;5.53;2.97;;;11.30;63.80;;;;;;5014068;28;20037;-63
2021/04/23 09:40:16;;;;;;;10.10;3.10;;;11.20;63.10;;;;;;5011218;28;20025;-66
2021/04/23 09:42:46;;;;;;;9.50;2.70;;;11.20;63.30;;;;;;5013845;28;20148;-65
2021/04/23 09:45:12;;;;;;;10.13;2.65;;;11.20;63.20;;;;;;5013718;28;20065;-65
2021/04/23 09:47:42;;;;;;;3.67;1.75;;;11.20;63.50;;;;;;5013118;28;20026;-66
2021/04/23 09:50:09;;;;;;;11.57;3.15;;;11.30;63.80;;;;;;5013692;28;20041;-63
2021/04/23 09:52:48;;;;;;;9.20;2.20;;;11.30;63.80;;;;;;5013752;28;20038;-61
2021/04/23 09:55:15;;;;;;;9.48;2.67;;;11.40;63.90;;;;;;5012908;28;20390;-61
2021/04/23 09:57:49;;;;;;;11.00;2.88;;;11.50;63.70;;;;;;5013940;28;20037;-61
2021/04/23 10:00:15;;;;;;;9.20;2.53;;;11.60;62.70;;;;;;5013946;28;20033;-61
2021/04/23 10:02:41;;;;;;;9.05;2.97;;;11.60;62.80;;;;;;5013208;28;20034;-61
2021/04/23 10:05:07;;;;;;;8.27;2.85;;;11.60;62.70;;;;;;5013891;28;20030;-62
2021/04/23 10:07:35;;;;;;;8.13;2.40;;;11.70;63.10;;;;;;5013285;28;20030;-61
2021/04/23 10:10:19;;;;;;;14.65;2.72;;;11.80;62.80;;;;;;5012503;28;20513;-61
2021/04/23 10:12:52;;;;;;;5.20;2.00;;;11.80;63.00;;;;;;5011796;28;20482;-61
2021/04/23 10:15:21;;;;;;;4.65;2.25;;;11.90;63.10;;;;;;5012461;28;20022;-61
2021/04/23 10:17:55;;;;;;;10.93;2.35;;;12.00;63.10;;;;;;5013487;28;20469;-61
2021/04/23 10:20:45;;;;;;;10.02;2.50;;;12.00;62.90;;;;;;5013640;28;20018;-61
2021/04/23 10:23:14;;;;;;;16.25;2.47;;;12.00;62.90;;;;;;5011028;28;20042;-64
2021/04/23 10:25:40;;;;;;;6.88;2.15;;;12.10;62.20;;;;;;5012645;28;20044;-62
2021/04/23 10:28:10;;;;;;;7.55;1.98;;;12.10;62.50;;;;;;5013201;28;20386;-62
2021/04/23 10:30:41;;;;;;;5.25;2.22;;;12.20;62.20;;;;;;5012756;28;20493;-62
2021/04/23 10:33:12;;;;;;;8.18;2.33;;;12.20;62.50;;;;;;5000655;28;20030;-62
2021/04/23 10:35:40;;;;;;;13.02;2.10;;;12.20;62.40;;;;;;5012740;28;20065;-62
2021/04/23 10:38:11;;;;;;;6.70;1.90;;;12.30;61.70;;;;;;4996105;28;20037;-62
2021/04/23 10:40:43;;;;;;;13.02;2.63;;;12.20;62.10;;;;;;5000626;28;20065;-62
2021/04/23 10:43:17;;;;;;;10.77;2.85;;;12.30;62.10;;;;;;4999060;28;20429;-62
2021/04/23 10:46:00;;;;;;;8.80;2.58;;;12.40;62.10;;;;;;5005728;28;20379;-64
2021/04/23 10:48:30;;;;;;;5.15;1.92;;;12.40;61.60;;;;;;4996043;28;20026;-64
2021/04/23 10:51:22;;;;;;;3.85;1.90;;;12.40;62.00;;;;;;4994877;28;20022;-64
2021/04/23 10:53:53;;;;;;;10.23;3.33;;;12.40;62.50;;;;;;4998241;28;20029;-64
2021/04/23 10:56:33;;;;;;;8.52;2.30;;;12.40;62.10;;;;;;5004077;28;20026;-64
2021/04/23 10:59:28;;;;;;;6.20;1.92;;;12.40;60.40;;;;;;5010915;28;20025;-64
2021/04/23 11:02:16;;;;;;;11.63;2.70;;;12.40;60.50;;;;;;5003091;28;20037;-64
2021/04/23 11:04:59;;;;;;;11.30;2.17;;;12.50;60.90;;;;;;5007346;28;20034;-64
2021/04/23 11:07:28;;;;;;;12.45;3.28;;;12.50;61.00;;;;;;5010419;28;20018;-64
2021/04/23 11:10:07;;;;;;;6.00;2.40;;;12.50;61.30;;;;;;5012093;28;20030;-63
2021/04/23 11:12:32;;;;;;;11.00;2.33;;;12.60;60.30;;;;;;5011531;28;20504;-63
2021/04/23 11:15:17;;;;;;;9.23;3.00;;;12.60;61.00;;;;;;5012627;28;20034;-64
2021/04/23 11:17:44;;;;;;;7.55;2.10;;;12.70;59.10;;;;;;5012356;28;20038;-63
2021/04/23 11:20:30;;;;;;;7.00;2.22;;;12.70;59.00;;;;;;5012047;28;20163;-63
2021/04/23 11:22:58;;;;;;;10.95;2.13;;;12.70;57.00;;;;;;5010039;28;20129;-63
2021/04/23 11:25:25;;;;;;;16.00;2.55;;;12.80;58.20;;;;;;5011759;28;20045;-64
2021/04/23 11:28:00;;;;;;;8.02;1.88;;;12.80;58.40;;;;;;5012596;28;20488;-62
2021/04/23 11:30:26;;;;;;;5.07;1.70;;;12.80;58.70;;;;;;5005606;28;20026;-63
2021/04/23 11:32:54;;;;;;;10.40;2.22;;;12.90;59.10;;;;;;5005495;28;20072;-62
2021/04/23 11:35:23;;;;;;;3.53;1.90;;;12.90;59.10;;;;;;5010434;28;20049;-63
2021/04/23 11:37:54;;;;;;;8.95;1.77;;;13.00;58.80;;;;;;5011263;28;20025;-62
2021/04/23 11:40:28;;;;;;;4.18;2.25;;;13.10;58.70;;;;;;5011152;28;20030;-62
2021/04/23 11:42:56;;;;;;;6.82;2.35;;;13.10;58.50;;;;;;5011554;28;20030;-62
2021/04/23 11:45:28;;;;;;;14.35;2.08;;;13.20;58.80;;;;;;5012000;28;20061;-62
2021/04/23 11:48:04;;;;;;;10.60;2.08;;;13.20;58.00;;;;;;5010983;28;20037;-62
2021/04/23 11:50:32;;;;;;;9.48;1.92;;;13.20;57.00;;;;;;5011757;28;20060;-62
2021/04/23 11:53:09;;;;;;;10.25;2.50;;;13.20;57.90;;;;;;5011619;28;20108;-63
2021/04/23 11:55:50;;;;;;;14.48;2.20;;;13.20;57.30;;;;;;5013686;28;20033;-62
2021/04/23 11:58:19;;;;;;;8.52;2.20;;;13.30;57.50;;;;;;5016043;28;20073;-63
2021/04/23 12:00:47;;;;;;;4.35;1.90;;;13.40;58.10;;;;;;5014649;28;20048;-61
2021/04/23 12:03:19;;;;;;;5.53;2.08;;;13.40;58.30;;;;;;5015129;28;20193;-62
2021/04/23 12:05:47;;;;;;;6.95;2.08;;;13.40;58.10;;;;;;5010898;28;20046;-62
2021/04/23 12:08:13;;;;;;;4.75;2.00;;;13.40;57.90;;;;;;5012999;28;20385;-61
2021/04/23 12:10:46;;;;;;;5.30;1.92;;;13.40;56.50;;;;;;5015108;28;20119;-61
2021/04/23 12:13:15;;;;;;;8.40;2.47;;;13.50;56.80;;;;;;5015577;28;20042;-62
2021/04/23 12:15:43;;;;;;;5.72;1.75;;;13.50;57.30;;;;;;5013815;28;20030;-62
2021/04/23 12:18:10;;;;;;;6.57;2.10;;;13.60;57.00;;;;;;5014962;28;20053;-61
2021/04/23 12:20:41;;;;;;;6.78;1.80;;;13.60;55.00;;;;;;5015151;28;20038;-61
2021/04/23 12:23:09;;;;;;;6.60;2.17;;;13.70;56.70;;;;;;5014372;28;20044;-61
2021/04/23 12:25:52;;;;;;;3.28;1.55;;;13.70;55.90;;;;;;5015099;28;20512;-62
2021/04/23 12:28:22;;;;;;;8.35;1.48;;;13.80;57.10;;;;;;5015278;28;20030;-61
2021/04/23 12:31:10;;;;;;;3.38;1.52;;;13.80;58.60;;;;;;5014377;28;20038;-61
2021/04/23 12:33:54;;;;;;;10.15;1.58;;;13.80;56.60;;;;;;5014701;28;20088;-61
2021/04/23 12:36:30;;;;;;;7.88;2.13;;;13.90;56.70;;;;;;5014317;28;20030;-61
2021/04/23 12:39:10;;;;;;;5.85;1.98;;;14.00;55.70;;;;;;5014720;28;20022;-63
2021/04/23 12:41:48;;;;;;;2.97;1.95;;;14.00;55.80;;;;;;5008432;28;20029;-66
2021/04/23 12:44:24;;;;;;;12.57;2.38;;;14.10;54.20;;;;;;5013829;28;20030;-63
2021/04/23 12:47:04;;;;;;;2.67;1.50;;;14.10;55.00;;;;;;5014626;28;20382;-63
2021/04/23 12:49:38;;;;;;;5.68;1.80;;;14.20;54.20;;;;;;5006323;28;20386;-67
2021/04/23 12:52:09;;;;;;;5.50;1.92;;;14.30;55.40;;;;;;5014231;28;20076;-62
2021/04/23 12:54:53;;;;;;;5.85;2.05;;;14.30;55.20;;;;;;5014084;28;20395;-62
2021/04/23 12:57:21;;;;;;;;;;;14.30;56.60;;;;;;5013769;28;20045;-62
2021/04/23 12:59:52;;;;;;;7.95;1.88;;;14.40;55.80;;;;;;4995936;28;19913;-62